Strona główna
METAR-TAF:

METAR-TAF

Lotnisko :

Port lotniczy Janina

Janina, Grecja

Szerokość geograficzna: 39-41-47N, Długość geograficzna: 20-49-21E, wysokość: 475 m

Aktualna obserwacja pogody

Raport powstał 1 godzina i 37 minut temu, godzina 18:50 UTC
Temperatura 25°C
Wilgotność 57%
Ciśnienie 1017 hPa
Widzialność 10 km lub więcej
Mało chmury na wysokości 3500 ft

METAR: LGIO 221850Z /////KT 9999 FEW035 25/16 Q1017

czas: 23:27 (20:27 UTC)

Prognoza

Raport powstał 3 godziny i 27 minut temu, godzina 17:00 UTC
Prognoza ważna od 22 godzina 18 UTC do 23 godzina 03 UTC
Wiatr 3 kt z kierunków zmiennych
Widzialność 10 km lub więcej
Mało chmury na wysokości 2500 ft
Rozproszone chmury na wysokości 8000 ft
Stopniowe zmiany
od 22 godzina 18 UTC do 22 godzina 20 UTC
Widzialność 10 km lub więcej
Brak chmur poniżej 1500 m i brak chmur cumulonimbus

TAF: LGIO 221700Z 2218/2303 VRB03KT 9999 FEW025 SCT080 BECMG 2218/2220 CAVOK

Obserwacja i prognoza pogody dla ponad 4000 lotnisk (raport METAR i TAF).

Dostępne stacje oznaczono żółtymi i czerwonymi punktami na mapie.

Najedź kursorem aby zobaczyć nazwę stacji.

Kliknij aby zobaczyć obserwacje i prognozy pogody.

Aby zmienić mapę: kliknij na zielony przycisk z czarnym krzyżykiem, aby powiększyć; na zielony przycisk z myślnikiem, aby pomniejszyć; na zielone strzałki, aby przejść do map sąsiednich.


METAR-TAF: